Terminal Aerodrome Forecast
Issued by NWS

Home | Current Version | Previous Version | Text Only | Print | Product List | Glossary On
Versions: 1 2 3 4 5 6 7 8 9 10 11 12 13 14 15 16 17 18 19 20 21 22
000
FTUS43 KILX 161100
TAFCMI
TAF
KCMI 161136Z 1612/1712 36006KT 6SM BR FEW020
      TEMPO 1612/1614 4SM BR BKN020
     FM161600 VRB05KT P6SM SKC
      TEMPO 1709/1712 4SM BR=

USA.gov is the U.S. government's official web portal to all federal, state and local government web resources and services.